»·PEaware :: WAT540 L52-KSBA

WAT540 :: L52-KSBA

FLIGHT INFORMATION

Flight Status: Arrived
Operator:
Walker Air Transport
More flights by this operator :: More flights under this callsign
Pilot: Michael R. (33632)
Aircraft: GRUMMAN AERO AA5 CHEETAH TIGER
(AA5)
More flights by this aircraft type
Origin: L52 Oceano Co
United States
Destination: KSBA Santa Barbara Mun
United States
More flights between these airports :: More routes between these airports
Route: PATER HOBTU GRRRR
File this flight plan on PilotEdge
Remarks:
Altitude:
(Current/Filed)
3,500ft
Speed:
(Current/Filed)
130kts
Departed: 09-Feb-21 03:56 AM
Arrived: 09-Feb-21 04:26 AM
Distance/Time
Traveled:
56nm/0:30
Distance/Time
To Go:
Arrived

Flight Plot

Page will automatically refresh every two minutes.

Flight plan parsing failed; only flown route is shown


Map Options




Map Legend


Flown Route
Filed Route
Departure Airport
Arrival Airport
Navaid (VOR, NDB)
Fix

Horizontal Profiles

Position Reports

Time Latitude Longitude Heading Altitude Ground
Speed
09-Feb-21 03:32 35.102804 -120.623602 214 14ft 0kts
09-Feb-21 03:33 35.102804 -120.623602 214 14ft 0kts
09-Feb-21 03:34 35.102804 -120.623602 214 14ft 0kts
09-Feb-21 03:35 35.102804 -120.623602 214 14ft 0kts
09-Feb-21 03:36 35.102804 -120.623602 214 14ft 0kts
09-Feb-21 03:37 35.102804 -120.623602 214 14ft 0kts
09-Feb-21 03:38 35.102804 -120.623602 214 14ft 0kts
09-Feb-21 03:39 35.102804 -120.623602 214 14ft 0kts
09-Feb-21 03:40 35.102804 -120.623602 214 14ft 0kts
09-Feb-21 03:41 35.102804 -120.623602 214 14ft 0kts
09-Feb-21 03:42 35.102804 -120.623602 214 14ft 0kts
09-Feb-21 03:43 35.102804 -120.623602 214 14ft 0kts
09-Feb-21 03:44 35.102804 -120.623602 214 14ft 0kts
09-Feb-21 03:45 35.102804 -120.623602 214 14ft 0kts
09-Feb-21 03:46 35.102804 -120.623602 214 14ft 0kts
09-Feb-21 03:47 35.102804 -120.623602 214 14ft 0kts
09-Feb-21 03:48 35.102804 -120.623602 214 14ft 0kts
09-Feb-21 03:49 35.102804 -120.623602 214 14ft 0kts
09-Feb-21 03:51 35.102804 -120.623602 214 14ft 0kts
09-Feb-21 03:52 35.102804 -120.623602 214 14ft 0kts
09-Feb-21 03:53 35.102858 -120.623907 288 14ft 8kts
09-Feb-21 03:54 35.103486 -120.625021 305 12ft 0kts
09-Feb-21 03:55 35.103234 -120.625516 143 12ft 2kts
09-Feb-21 03:56 35.092664 -120.609516 139 515ft 81kts
09-Feb-21 03:57 35.072458 -120.595740 150 1382ft 89kts
09-Feb-21 03:58 35.051944 -120.578369 147 2289ft 90kts
09-Feb-21 03:59 35.031668 -120.560516 147 3153ft 90kts
09-Feb-21 04:00 35.007711 -120.539379 146 3500ft 129kts
09-Feb-21 04:01 34.976952 -120.512130 146 3495ft 140kts
09-Feb-21 04:02 34.944979 -120.483890 146 3495ft 142kts
09-Feb-21 04:03 34.912973 -120.455656 146 3494ft 142kts
09-Feb-21 04:04 34.880785 -120.427294 146 3494ft 142kts
09-Feb-21 04:04 34.854061 -120.403793 146 3495ft 142kts
09-Feb-21 04:06 34.816545 -120.370875 146 3495ft 142kts
09-Feb-21 04:06 34.789698 -120.347342 146 3494ft 142kts
09-Feb-21 04:08 34.752123 -120.314439 146 3493ft 142kts
09-Feb-21 04:09 34.720057 -120.286390 146 3493ft 142kts
09-Feb-21 04:09 34.693260 -120.262970 146 3493ft 142kts
09-Feb-21 04:11 34.655815 -120.230276 146 3493ft 142kts
09-Feb-21 04:11 34.629009 -120.206893 146 3493ft 142kts
09-Feb-21 04:12 34.591770 -120.196531 176 3493ft 138kts
09-Feb-21 04:13 34.553142 -120.191302 176 3493ft 138kts
09-Feb-21 04:14 34.514788 -120.186188 176 3493ft 138kts
09-Feb-21 04:15 34.476553 -120.181097 176 3493ft 138kts
09-Feb-21 04:16 34.438133 -120.175986 176 3493ft 138kts
09-Feb-21 04:17 34.421923 -120.137926 91 3493ft 145kts
09-Feb-21 04:18 34.422358 -120.087268 88 3199ft 157kts
09-Feb-21 04:19 34.423148 -120.033611 88 2818ft 159kts
09-Feb-21 04:20 34.423916 -119.980034 88 2448ft 158kts
09-Feb-21 04:21 34.425270 -119.930134 85 1581ft 136kts
09-Feb-21 04:22 34.426870 -119.889633 88 754ft 93kts
09-Feb-21 04:23 34.427350 -119.863060 89 249ft 78kts
09-Feb-21 04:24 34.427726 -119.842792 88 12ft 45kts
09-Feb-21 04:25 34.425138 -119.837869 164 11ft 15kts
09-Feb-21 04:26 34.423184 -119.835706 352 9ft 5kts
09-Feb-21 04:27 34.423315 -119.835738 323 9ft 0kts
09-Feb-21 04:28 34.423315 -119.835738 323 9ft 0kts
09-Feb-21 04:29 34.423315 -119.835738 323 9ft 0kts
09-Feb-21 04:30 34.423315 -119.835738 323 9ft 0kts

Navigation Log

Ident Type
Flight plan parsing failed, navigation log unavailable